sensor_id;sensor_type;location;lat;lon;timestamp;pressure;altitude;pressure_sealevel;temperature;humidity
77776;BME280;66965;43.328;6.668;2023-08-07T00:02:23;100932.00;;;21.50;44.87
77776;BME280;66965;43.328;6.668;2023-08-07T00:04:49;100939.94;;;21.38;44.61
77776;BME280;66965;43.328;6.668;2023-08-07T00:07:14;100943.34;;;21.40;44.79
77776;BME280;66965;43.328;6.668;2023-08-07T00:09:39;100943.28;;;21.41;44.98
77776;BME280;66965;43.328;6.668;2023-08-07T00:12:05;100939.69;;;21.28;44.89
77776;BME280;66965;43.328;6.668;2023-08-07T00:14:30;100948.53;;;21.28;45.26
77776;BME280;66965;43.328;6.668;2023-08-07T00:16:56;100937.97;;;21.27;45.45
77776;BME280;66965;43.328;6.668;2023-08-07T00:19:21;100944.44;;;21.23;45.90
77776;BME280;66965;43.328;6.668;2023-08-07T00:21:47;100929.41;;;21.22;46.08
77776;BME280;66965;43.328;6.668;2023-08-07T00:24:12;100932.25;;;21.19;46.15
77776;BME280;66965;43.328;6.668;2023-08-07T00:26:37;100931.50;;;21.17;46.36
77776;BME280;66965;43.328;6.668;2023-08-07T00:29:03;100934.19;;;21.17;46.41
77776;BME280;66965;43.328;6.668;2023-08-07T00:31:28;100925.69;;;21.24;46.53
77776;BME280;66965;43.328;6.668;2023-08-07T00:33:57;100937.78;;;21.16;46.66
77776;BME280;66965;43.328;6.668;2023-08-07T00:36:22;100928.72;;;21.04;47.52
77776;BME280;66965;43.328;6.668;2023-08-07T00:38:48;100933.88;;;21.07;47.34
77776;BME280;66965;43.328;6.668;2023-08-07T00:41:16;100933.63;;;21.12;47.27
77776;BME280;66965;43.328;6.668;2023-08-07T00:43:41;100926.56;;;21.11;47.38
77776;BME280;66965;43.328;6.668;2023-08-07T00:46:07;100935.59;;;21.08;47.60
77776;BME280;66965;43.328;6.668;2023-08-07T00:48:32;100945.75;;;21.02;48.00
77776;BME280;66965;43.328;6.668;2023-08-07T00:50:59;100931.50;;;21.03;48.23
77776;BME280;66965;43.328;6.668;2023-08-07T00:53:24;100932.81;;;20.96;48.49
77776;BME280;66965;43.328;6.668;2023-08-07T00:55:50;100939.28;;;21.06;48.18
77776;BME280;66965;43.328;6.668;2023-08-07T00:58:16;100936.25;;;20.98;48.56
77776;BME280;66965;43.328;6.668;2023-08-07T01:00:42;100932.22;;;21.05;48.69
77776;BME280;66965;43.328;6.668;2023-08-07T01:03:07;100932.22;;;20.91;49.22
77776;BME280;66965;43.328;6.668;2023-08-07T01:05:34;100946.34;;;20.93;48.75
77776;BME280;66965;43.328;6.668;2023-08-07T01:07:59;100953.09;;;20.98;49.03
77776;BME280;66965;43.328;6.668;2023-08-07T01:13:45;100949.19;;;20.90;50.01
77776;BME280;66965;43.328;6.668;2023-08-07T01:16:22;100935.28;;;20.99;49.44
77776;BME280;66965;43.328;6.668;2023-08-07T01:18:52;100951.56;;;20.94;50.08
77776;BME280;66965;43.328;6.668;2023-08-07T01:21:20;100947.59;;;20.87;50.52
77776;BME280;66965;43.328;6.668;2023-08-07T01:23:46;100949.88;;;20.79;50.61
77776;BME280;66965;43.328;6.668;2023-08-07T01:26:13;100964.03;;;20.80;51.09
77776;BME280;66965;43.328;6.668;2023-08-07T01:28:43;100971.66;;;20.86;50.76
77776;BME280;66965;43.328;6.668;2023-08-07T01:31:13;100965.94;;;20.92;50.90
77776;BME280;66965;43.328;6.668;2023-08-07T01:34:02;100961.56;;;20.91;51.09
77776;BME280;66965;43.328;6.668;2023-08-07T01:36:29;100965.44;;;20.85;51.91
77776;BME280;66965;43.328;6.668;2023-08-07T01:38:59;100957.84;;;20.79;52.28
77776;BME280;66965;43.328;6.668;2023-08-07T01:41:26;100956.03;;;20.80;52.14
77776;BME280;66965;43.328;6.668;2023-08-07T01:43:52;100959.91;;;20.74;52.46
77776;BME280;66965;43.328;6.668;2023-08-07T01:46:18;100960.13;;;20.85;52.36
77776;BME280;66965;43.328;6.668;2023-08-07T01:48:44;100976.09;;;20.71;53.07
77776;BME280;66965;43.328;6.668;2023-08-07T01:51:09;100976.38;;;20.66;53.64
77776;BME280;66965;43.328;6.668;2023-08-07T01:53:36;100984.00;;;20.73;53.72
77776;BME280;66965;43.328;6.668;2023-08-07T01:56:01;100971.38;;;20.76;53.75
77776;BME280;66965;43.328;6.668;2023-08-07T01:58:27;100977.91;;;20.56;54.75
77776;BME280;66965;43.328;6.668;2023-08-07T02:00:53;100968.69;;;20.76;53.79
77776;BME280;66965;43.328;6.668;2023-08-07T02:03:19;100965.66;;;20.68;54.66
77776;BME280;66965;43.328;6.668;2023-08-07T02:05:45;100965.16;;;20.61;55.63
77776;BME280;66965;43.328;6.668;2023-08-07T02:08:11;100973.03;;;20.63;55.56
77776;BME280;66965;43.328;6.668;2023-08-07T02:10:37;100968.56;;;20.63;55.19
77776;BME280;66965;43.328;6.668;2023-08-07T02:13:02;100967.41;;;20.53;55.81
77776;BME280;66965;43.328;6.668;2023-08-07T02:15:27;100989.31;;;20.58;56.21
77776;BME280;66965;43.328;6.668;2023-08-07T02:17:53;100982.19;;;20.59;56.58
77776;BME280;66965;43.328;6.668;2023-08-07T02:20:18;100973.44;;;20.57;56.69
77776;BME280;66965;43.328;6.668;2023-08-07T02:22:44;100994.22;;;20.50;57.15
77776;BME280;66965;43.328;6.668;2023-08-07T02:25:09;100975.00;;;20.45;57.86
77776;BME280;66965;43.328;6.668;2023-08-07T02:27:35;100989.84;;;20.49;57.85
77776;BME280;66965;43.328;6.668;2023-08-07T02:30:00;100987.81;;;20.39;58.88
77776;BME280;66965;43.328;6.668;2023-08-07T02:32:28;100980.38;;;20.59;57.64
77776;BME280;66965;43.328;6.668;2023-08-07T02:34:53;100993.47;;;20.48;58.34
77776;BME280;66965;43.328;6.668;2023-08-07T02:37:19;100983.06;;;20.44;58.76
77776;BME280;66965;43.328;6.668;2023-08-07T02:39:46;100996.00;;;20.36;59.17
77776;BME280;66965;43.328;6.668;2023-08-07T02:42:11;100989.84;;;20.49;58.80
77776;BME280;66965;43.328;6.668;2023-08-07T02:44:37;100997.34;;;20.43;58.99
77776;BME280;66965;43.328;6.668;2023-08-07T02:47:02;100999.88;;;20.30;60.93
77776;BME280;66965;43.328;6.668;2023-08-07T02:49:28;101000.72;;;20.31;60.94
77776;BME280;66965;43.328;6.668;2023-08-07T02:51:53;100998.41;;;20.25;60.88
77776;BME280;66965;43.328;6.668;2023-08-07T02:54:19;101015.09;;;20.28;60.60
77776;BME280;66965;43.328;6.668;2023-08-07T02:56:44;101010.72;;;20.27;60.51
77776;BME280;66965;43.328;6.668;2023-08-07T02:59:10;101005.28;;;20.29;60.79
77776;BME280;66965;43.328;6.668;2023-08-07T03:01:35;101000.47;;;20.35;60.10
77776;BME280;66965;43.328;6.668;2023-08-07T03:04:01;101000.16;;;20.26;60.90
77776;BME280;66965;43.328;6.668;2023-08-07T03:06:26;101008.06;;;20.27;61.08
77776;BME280;66965;43.328;6.668;2023-08-07T03:08:51;101014.91;;;20.16;61.82
77776;BME280;66965;43.328;6.668;2023-08-07T03:11:17;101011.56;;;20.28;60.60
77776;BME280;66965;43.328;6.668;2023-08-07T03:13:42;101013.72;;;20.21;61.09
77776;BME280;66965;43.328;6.668;2023-08-07T03:16:09;101029.91;;;20.17;61.69
77776;BME280;66965;43.328;6.668;2023-08-07T03:18:35;101009.13;;;20.23;61.57
77776;BME280;66965;43.328;6.668;2023-08-07T03:21:00;101031.31;;;20.24;61.24
77776;BME280;66965;43.328;6.668;2023-08-07T03:23:27;101022.22;;;20.12;62.02
77776;BME280;66965;43.328;6.668;2023-08-07T03:26:23;101028.13;;;20.17;61.94
77776;BME280;66965;43.328;6.668;2023-08-07T03:28:48;101043.22;;;20.17;61.45
77776;BME280;66965;43.328;6.668;2023-08-07T03:31:14;101020.31;;;20.14;61.65
77776;BME280;66965;43.328;6.668;2023-08-07T03:33:40;101031.53;;;20.19;61.88
77776;BME280;66965;43.328;6.668;2023-08-07T03:36:05;101042.19;;;20.19;61.62
77776;BME280;66965;43.328;6.668;2023-08-07T03:38:31;101036.69;;;20.22;61.25
77776;BME280;66965;43.328;6.668;2023-08-07T03:40:56;101033.19;;;20.22;61.52
77776;BME280;66965;43.328;6.668;2023-08-07T03:43:21;101060.25;;;20.14;61.01
77776;BME280;66965;43.328;6.668;2023-08-07T03:45:47;101050.63;;;20.11;61.70
77776;BME280;66965;43.328;6.668;2023-08-07T03:48:12;101049.09;;;20.07;61.90
77776;BME280;66965;43.328;6.668;2023-08-07T03:50:38;101052.63;;;20.08;61.99
77776;BME280;66965;43.328;6.668;2023-08-07T03:53:04;101064.09;;;20.08;61.89
77776;BME280;66965;43.328;6.668;2023-08-07T03:55:32;101057.56;;;20.14;61.65
77776;BME280;66965;43.328;6.668;2023-08-07T03:57:57;101049.97;;;20.08;61.98
77776;BME280;66965;43.328;6.668;2023-08-07T04:00:22;101063.63;;;20.02;61.89
77776;BME280;66965;43.328;6.668;2023-08-07T04:02:48;101069.25;;;20.11;61.56
77776;BME280;66965;43.328;6.668;2023-08-07T04:05:13;101068.13;;;20.00;62.52
77776;BME280;66965;43.328;6.668;2023-08-07T04:07:39;101058.03;;;20.06;62.01
77776;BME280;66965;43.328;6.668;2023-08-07T04:10:04;101070.72;;;20.01;61.90
77776;BME280;66965;43.328;6.668;2023-08-07T04:12:30;101065.25;;;19.89;62.64
77776;BME280;66965;43.328;6.668;2023-08-07T04:14:55;101061.28;;;19.96;62.34
77776;BME280;66965;43.328;6.668;2023-08-07T04:17:21;101068.50;;;19.94;62.25
77776;BME280;66965;43.328;6.668;2023-08-07T04:19:46;101075.53;;;19.95;62.56
77776;BME280;66965;43.328;6.668;2023-08-07T04:22:12;101074.16;;;19.88;62.85
77776;BME280;66965;43.328;6.668;2023-08-07T04:24:37;101068.50;;;19.94;62.47
77776;BME280;66965;43.328;6.668;2023-08-07T04:27:03;101070.81;;;19.84;62.75
77776;BME280;66965;43.328;6.668;2023-08-07T04:29:28;101060.34;;;19.81;63.18
77776;BME280;66965;43.328;6.668;2023-08-07T04:31:54;101070.97;;;19.81;63.11
77776;BME280;66965;43.328;6.668;2023-08-07T04:34:19;101055.53;;;19.72;63.66
77776;BME280;66965;43.328;6.668;2023-08-07T04:36:44;101070.97;;;19.81;63.08
77776;BME280;66965;43.328;6.668;2023-08-07T04:39:10;101049.53;;;19.84;63.14
77776;BME280;66965;43.328;6.668;2023-08-07T04:41:36;101059.22;;;19.85;62.75
77776;BME280;66965;43.328;6.668;2023-08-07T04:44:02;101072.59;;;19.84;63.29
77776;BME280;66965;43.328;6.668;2023-08-07T04:46:27;101062.22;;;19.79;63.48
77776;BME280;66965;43.328;6.668;2023-08-07T04:48:53;101074.84;;;19.76;63.14
77776;BME280;66965;43.328;6.668;2023-08-07T04:51:19;101086.50;;;19.73;63.84
77776;BME280;66965;43.328;6.668;2023-08-07T04:53:44;101079.56;;;19.71;63.95
77776;BME280;66965;43.328;6.668;2023-08-07T04:56:10;101078.84;;;19.67;63.81
77776;BME280;66965;43.328;6.668;2023-08-07T04:58:35;101082.03;;;19.74;63.62
77776;BME280;66965;43.328;6.668;2023-08-07T05:01:01;101081.13;;;19.75;63.51
77776;BME280;66965;43.328;6.668;2023-08-07T05:03:26;101080.69;;;19.82;63.36
77776;BME280;66965;43.328;6.668;2023-08-07T05:06:01;101078.72;;;19.86;63.02
77776;BME280;66965;43.328;6.668;2023-08-07T05:08:27;101072.97;;;19.78;63.02
77776;BME280;66965;43.328;6.668;2023-08-07T05:10:52;101096.06;;;19.77;63.12
77776;BME280;66965;43.328;6.668;2023-08-07T05:13:18;101093.56;;;19.74;63.29
77776;BME280;66965;43.328;6.668;2023-08-07T05:15:43;101082.22;;;19.86;63.50
77776;BME280;66965;43.328;6.668;2023-08-07T05:18:09;101099.41;;;19.81;63.31
77776;BME280;66965;43.328;6.668;2023-08-07T05:20:34;101098.59;;;19.79;63.22
77776;BME280;66965;43.328;6.668;2023-08-07T05:22:59;101088.50;;;19.85;62.44
77776;BME280;66965;43.328;6.668;2023-08-07T05:25:25;101112.78;;;19.79;62.63
77776;BME280;66965;43.328;6.668;2023-08-07T05:27:51;101111.84;;;19.80;62.21
77776;BME280;66965;43.328;6.668;2023-08-07T05:30:16;101106.09;;;19.88;61.65
77776;BME280;66965;43.328;6.668;2023-08-07T05:32:42;101099.91;;;19.87;62.02
77776;BME280;66965;43.328;6.668;2023-08-07T05:35:08;101106.69;;;19.77;62.78
77776;BME280;66965;43.328;6.668;2023-08-07T05:37:34;101108.06;;;20.00;61.25
77776;BME280;66965;43.328;6.668;2023-08-07T05:40:01;101100.00;;;19.86;61.46
77776;BME280;66965;43.328;6.668;2023-08-07T05:42:26;101099.47;;;19.95;61.30
77776;BME280;66965;43.328;6.668;2023-08-07T05:44:52;101097.78;;;20.09;60.57
77776;BME280;66965;43.328;6.668;2023-08-07T05:47:17;101113.84;;;20.08;59.53
77776;BME280;66965;43.328;6.668;2023-08-07T05:49:42;101123.78;;;20.04;59.84
77776;BME280;66965;43.328;6.668;2023-08-07T05:52:08;101134.09;;;20.10;59.75
77776;BME280;66965;43.328;6.668;2023-08-07T05:54:34;101128.19;;;20.21;59.58
77776;BME280;66965;43.328;6.668;2023-08-07T05:56:59;101131.09;;;20.17;58.36
77776;BME280;66965;43.328;6.668;2023-08-07T05:59:25;101133.97;;;20.29;57.47
77776;BME280;66965;43.328;6.668;2023-08-07T06:01:51;101143.16;;;20.39;57.73
77776;BME280;66965;43.328;6.668;2023-08-07T06:04:16;101145.63;;;20.42;56.69
77776;BME280;66965;43.328;6.668;2023-08-07T06:06:42;101155.41;;;20.57;56.21
77776;BME280;66965;43.328;6.668;2023-08-07T06:09:08;101143.91;;;20.57;55.47
77776;BME280;66965;43.328;6.668;2023-08-07T06:11:33;101144.81;;;20.72;55.22
77776;BME280;66965;43.328;6.668;2023-08-07T06:13:59;101142.25;;;20.70;54.98
77776;BME280;66965;43.328;6.668;2023-08-07T06:16:24;101141.22;;;20.73;53.47
77776;BME280;66965;43.328;6.668;2023-08-07T06:18:50;101146.09;;;20.80;52.99
77776;BME280;66965;43.328;6.668;2023-08-07T06:21:15;101163.59;;;21.00;53.46
77776;BME280;66965;43.328;6.668;2023-08-07T06:23:41;101163.41;;;21.03;52.24
77776;BME280;66965;43.328;6.668;2023-08-07T06:26:07;101148.53;;;21.14;51.94
77776;BME280;66965;43.328;6.668;2023-08-07T06:28:34;101165.97;;;21.20;50.99
77776;BME280;66965;43.328;6.668;2023-08-07T06:31:04;101169.03;;;21.28;50.02
77776;BME280;66965;43.328;6.668;2023-08-07T06:33:30;101168.06;;;21.29;50.45
77776;BME280;66965;43.328;6.668;2023-08-07T06:35:57;101173.63;;;21.40;49.41
77776;BME280;66965;43.328;6.668;2023-08-07T06:38:23;101168.28;;;21.40;48.71
77776;BME280;66965;43.328;6.668;2023-08-07T06:40:48;101163.16;;;21.51;48.74
77776;BME280;66965;43.328;6.668;2023-08-07T06:43:13;101173.66;;;21.54;48.21
77776;BME280;66965;43.328;6.668;2023-08-07T06:45:39;101175.38;;;21.55;47.18
77776;BME280;66965;43.328;6.668;2023-08-07T06:48:04;101185.28;;;21.67;47.43
77776;BME280;66965;43.328;6.668;2023-08-07T06:50:30;101189.25;;;21.90;46.64
77776;BME280;66965;43.328;6.668;2023-08-07T06:52:56;101189.72;;;21.97;46.16
77776;BME280;66965;43.328;6.668;2023-08-07T06:55:22;101186.28;;;21.95;45.75
77776;BME280;66965;43.328;6.668;2023-08-07T06:57:47;101201.22;;;22.11;45.70
77776;BME280;66965;43.328;6.668;2023-08-07T07:00:13;101210.00;;;22.13;44.54
77776;BME280;66965;43.328;6.668;2023-08-07T07:02:38;101211.41;;;22.33;44.43
77776;BME280;66965;43.328;6.668;2023-08-07T07:05:04;101201.34;;;22.24;43.93
77776;BME280;66965;43.328;6.668;2023-08-07T07:07:30;101206.16;;;22.46;43.66
77776;BME280;66965;43.328;6.668;2023-08-07T07:09:56;101218.25;;;22.65;43.27
77776;BME280;66965;43.328;6.668;2023-08-07T07:12:23;101228.47;;;22.73;43.16
77776;BME280;66965;43.328;6.668;2023-08-07T07:14:48;101224.88;;;22.86;42.58
77776;BME280;66965;43.328;6.668;2023-08-07T07:17:14;101230.47;;;22.96;42.00
77776;BME280;66965;43.328;6.668;2023-08-07T07:19:39;101227.72;;;22.97;41.93
77776;BME280;66965;43.328;6.668;2023-08-07T07:22:05;101220.66;;;23.09;41.57
77776;BME280;66965;43.328;6.668;2023-08-07T07:24:30;101221.97;;;23.43;40.76
77776;BME280;66965;43.328;6.668;2023-08-07T07:26:56;101227.56;;;23.65;40.09
77776;BME280;66965;43.328;6.668;2023-08-07T07:29:21;101221.03;;;23.44;39.69
77776;BME280;66965;43.328;6.668;2023-08-07T07:31:47;101226.59;;;23.66;39.12
77776;BME280;66965;43.328;6.668;2023-08-07T07:34:12;101224.03;;;23.90;38.77
77776;BME280;66965;43.328;6.668;2023-08-07T07:36:38;101229.72;;;23.98;38.33
77776;BME280;66965;43.328;6.668;2023-08-07T07:39:03;101233.22;;;24.24;37.23
77776;BME280;66965;43.328;6.668;2023-08-07T07:41:28;101249.53;;;24.33;37.46
77776;BME280;66965;43.328;6.668;2023-08-07T07:43:54;101225.06;;;24.38;36.67
77776;BME280;66965;43.328;6.668;2023-08-07T07:46:22;101235.47;;;24.42;36.64
77776;BME280;66965;43.328;6.668;2023-08-07T07:48:48;101232.41;;;24.96;36.15
77776;BME280;66965;43.328;6.668;2023-08-07T07:51:14;101231.50;;;25.43;35.37
77776;BME280;66965;43.328;6.668;2023-08-07T07:53:39;101238.81;;;25.75;35.24
77776;BME280;66965;43.328;6.668;2023-08-07T07:56:05;101235.94;;;26.12;33.80
77776;BME280;66965;43.328;6.668;2023-08-07T07:58:30;101230.91;;;26.07;33.57
77776;BME280;66965;43.328;6.668;2023-08-07T08:00:56;101249.19;;;26.15;33.03
77776;BME280;66965;43.328;6.668;2023-08-07T08:03:21;101250.72;;;26.06;33.24
77776;BME280;66965;43.328;6.668;2023-08-07T08:05:50;101250.88;;;26.38;32.32
77776;BME280;66965;43.328;6.668;2023-08-07T08:08:16;101245.75;;;27.00;31.74
77776;BME280;66965;43.328;6.668;2023-08-07T08:10:42;101243.19;;;27.41;31.14
77776;BME280;66965;43.328;6.668;2023-08-07T08:13:09;101258.50;;;27.61;29.89
77776;BME280;66965;43.328;6.668;2023-08-07T08:15:34;101258.03;;;27.77;29.79
77776;BME280;66965;43.328;6.668;2023-08-07T08:18:00;101255.00;;;27.71;29.69
77776;BME280;66965;43.328;6.668;2023-08-07T08:20:25;101258.50;;;27.61;29.29
77776;BME280;66965;43.328;6.668;2023-08-07T08:22:51;101260.50;;;27.59;29.35
77776;BME280;66965;43.328;6.668;2023-08-07T08:25:16;101265.25;;;27.97;28.78
77776;BME280;66965;43.328;6.668;2023-08-07T08:27:43;101266.97;;;29.08;27.31
77776;BME280;66965;43.328;6.668;2023-08-07T08:30:08;101271.16;;;28.42;27.53
77776;BME280;66965;43.328;6.668;2023-08-07T08:32:34;101288.72;;;29.07;27.08
77776;BME280;66965;43.328;6.668;2023-08-07T08:34:59;101268.19;;;28.66;27.28
77776;BME280;66965;43.328;6.668;2023-08-07T08:37:25;101285.16;;;29.16;26.80
77776;BME280;66965;43.328;6.668;2023-08-07T08:39:50;101292.75;;;29.60;25.64
77776;BME280;66965;43.328;6.668;2023-08-07T08:42:16;101291.53;;;28.96;25.50
77776;BME280;66965;43.328;6.668;2023-08-07T08:44:48;101295.22;;;28.95;25.62
77776;BME280;66965;43.328;6.668;2023-08-07T08:47:16;101295.16;;;29.63;25.27
77776;BME280;66965;43.328;6.668;2023-08-07T08:49:43;101293.81;;;30.15;25.15
77776;BME280;66965;43.328;6.668;2023-08-07T08:52:11;101291.69;;;31.10;24.27
77776;BME280;66965;43.328;6.668;2023-08-07T08:54:37;101304.38;;;30.55;23.66
77776;BME280;66965;43.328;6.668;2023-08-07T08:57:04;101298.31;;;30.34;23.49
77776;BME280;66965;43.328;6.668;2023-08-07T08:59:30;101300.19;;;30.70;23.32
77776;BME280;66965;43.328;6.668;2023-08-07T09:01:56;101289.94;;;31.36;23.34
77776;BME280;66965;43.328;6.668;2023-08-07T09:04:21;101298.31;;;30.43;23.53
77776;BME280;66965;43.328;6.668;2023-08-07T09:06:47;101295.25;;;30.93;23.21
77776;BME280;66965;43.328;6.668;2023-08-07T09:09:13;101301.28;;;31.04;23.28
77776;BME280;66965;43.328;6.668;2023-08-07T09:11:41;101302.69;;;31.44;22.30
77776;BME280;66965;43.328;6.668;2023-08-07T09:14:08;101300.03;;;31.87;21.76
77776;BME280;66965;43.328;6.668;2023-08-07T09:16:35;101303.50;;;32.82;21.28
77776;BME280;66965;43.328;6.668;2023-08-07T09:19:01;101304.19;;;31.56;23.18
77776;BME280;66965;43.328;6.668;2023-08-07T09:21:26;101301.44;;;32.76;22.05
77776;BME280;66965;43.328;6.668;2023-08-07T09:23:53;101306.25;;;32.23;22.48
77776;BME280;66965;43.328;6.668;2023-08-07T09:26:22;101301.06;;;33.13;20.83
77776;BME280;66965;43.328;6.668;2023-08-07T09:28:51;101305.53;;;32.80;21.59
77776;BME280;66965;43.328;6.668;2023-08-07T09:31:17;101306.34;;;31.70;22.16
77776;BME280;66965;43.328;6.668;2023-08-07T09:33:42;101298.19;;;32.65;22.72
77776;BME280;66965;43.328;6.668;2023-08-07T09:36:11;101303.13;;;33.11;22.20
77776;BME280;66965;43.328;6.668;2023-08-07T09:38:37;101295.72;;;32.20;21.88
77776;BME280;66965;43.328;6.668;2023-08-07T09:41:03;101301.75;;;33.07;35.97
77776;BME280;66965;43.328;6.668;2023-08-07T09:43:29;101310.16;;;33.78;32.75
77776;BME280;66965;43.328;6.668;2023-08-07T09:46:03;101315.25;;;33.49;23.79
77776;BME280;66965;43.328;6.668;2023-08-07T09:48:28;101320.78;;;34.44;27.30
77776;BME280;66965;43.328;6.668;2023-08-07T09:50:54;101326.38;;;35.06;21.79
77776;BME280;66965;43.328;6.668;2023-08-07T09:53:26;101331.13;;;35.04;27.49
77776;BME280;66965;43.328;6.668;2023-08-07T09:55:53;101330.78;;;34.68;23.37
77776;BME280;66965;43.328;6.668;2023-08-07T09:58:18;101332.25;;;34.79;22.36
77776;BME280;66965;43.328;6.668;2023-08-07T10:00:46;101328.00;;;34.05;27.16
77776;BME280;66965;43.328;6.668;2023-08-07T10:03:13;101333.91;;;34.41;26.85
77776;BME280;66965;43.328;6.668;2023-08-07T10:05:40;101332.44;;;33.00;46.60
77776;BME280;66965;43.328;6.668;2023-08-07T10:08:06;101337.84;;;33.50;35.91
77776;BME280;66965;43.328;6.668;2023-08-07T10:10:32;101330.09;;;32.37;40.31
77776;BME280;66965;43.328;6.668;2023-08-07T10:13:00;101334.38;;;33.15;43.10
77776;BME280;66965;43.328;6.668;2023-08-07T10:15:27;101335.31;;;33.80;45.30
77776;BME280;66965;43.328;6.668;2023-08-07T10:17:52;101329.72;;;33.58;29.36
77776;BME280;66965;43.328;6.668;2023-08-07T10:20:18;101337.75;;;32.42;35.17
77776;BME280;66965;43.328;6.668;2023-08-07T10:22:44;101333.63;;;32.63;40.66
77776;BME280;66965;43.328;6.668;2023-08-07T10:25:10;101327.97;;;33.40;34.63
77776;BME280;66965;43.328;6.668;2023-08-07T10:27:38;101334.50;;;33.96;34.42
77776;BME280;66965;43.328;6.668;2023-08-07T10:30:07;101333.13;;;33.76;34.76
77776;BME280;66965;43.328;6.668;2023-08-07T10:32:35;101339.38;;;33.44;38.66
77776;BME280;66965;43.328;6.668;2023-08-07T10:35:04;101345.91;;;31.98;60.79
77776;BME280;66965;43.328;6.668;2023-08-07T10:37:41;101345.91;;;33.17;68.32
77776;BME280;66965;43.328;6.668;2023-08-07T10:40:07;101337.03;;;32.65;61.42
77776;BME280;66965;43.328;6.668;2023-08-07T10:45:20;101328.34;;;31.85;57.36
77776;BME280;66965;43.328;6.668;2023-08-07T10:48:12;101328.50;;;33.44;41.31
77776;BME280;66965;43.328;6.668;2023-08-07T10:50:56;101325.44;;;33.47;50.00
77776;BME280;66965;43.328;6.668;2023-08-07T10:53:35;101335.47;;;33.38;60.78
77776;BME280;66965;43.328;6.668;2023-08-07T10:56:06;101339.41;;;33.60;62.06
77776;BME280;66965;43.328;6.668;2023-08-07T10:58:34;101330.75;;;33.73;48.54
77776;BME280;66965;43.328;6.668;2023-08-07T11:03:43;101338.56;;;33.92;52.04
77776;BME280;66965;43.328;6.668;2023-08-07T11:06:12;101337.84;;;32.92;61.77
77776;BME280;66965;43.328;6.668;2023-08-07T11:08:37;101342.38;;;31.80;65.75
77776;BME280;66965;43.328;6.668;2023-08-07T11:11:04;101336.25;;;30.98;70.41
77776;BME280;66965;43.328;6.668;2023-08-07T11:13:30;101336.25;;;30.88;60.42
77776;BME280;66965;43.328;6.668;2023-08-07T11:15:56;101332.31;;;30.83;68.15
77776;BME280;66965;43.328;6.668;2023-08-07T11:18:22;101344.53;;;30.60;72.76
77776;BME280;66965;43.328;6.668;2023-08-07T11:20:48;101336.19;;;31.07;68.96
77776;BME280;66965;43.328;6.668;2023-08-07T11:23:14;101343.06;;;31.02;71.28
77776;BME280;66965;43.328;6.668;2023-08-07T11:25:41;101346.25;;;31.78;68.40
77776;BME280;66965;43.328;6.668;2023-08-07T11:28:07;101338.72;;;32.07;69.76
77776;BME280;66965;43.328;6.668;2023-08-07T11:30:34;101339.53;;;31.64;74.18
77776;BME280;66965;43.328;6.668;2023-08-07T11:33:01;101337.34;;;31.67;66.93
77776;BME280;66965;43.328;6.668;2023-08-07T11:35:26;101337.41;;;31.76;68.62
77776;BME280;66965;43.328;6.668;2023-08-07T11:37:51;101338.44;;;31.57;68.88
77776;BME280;66965;43.328;6.668;2023-08-07T11:40:19;101340.91;;;31.68;74.21
77776;BME280;66965;43.328;6.668;2023-08-07T11:42:44;101335.75;;;31.30;77.12
77776;BME280;66965;43.328;6.668;2023-08-07T11:45:10;101337.59;;;31.29;75.93
77776;BME280;66965;43.328;6.668;2023-08-07T11:47:35;101345.31;;;31.51;71.77
77776;BME280;66965;43.328;6.668;2023-08-07T11:50:01;101345.91;;;31.45;69.71
77776;BME280;66965;43.328;6.668;2023-08-07T11:52:27;101346.09;;;31.61;77.37
77776;BME280;66965;43.328;6.668;2023-08-07T11:54:52;101345.63;;;32.01;70.14
77776;BME280;66965;43.328;6.668;2023-08-07T11:57:20;101335.41;;;32.21;68.99
77776;BME280;66965;43.328;6.668;2023-08-07T11:59:51;101342.91;;;32.53;71.68
77776;BME280;66965;43.328;6.668;2023-08-07T12:02:19;101330.78;;;32.65;70.12
77776;BME280;66965;43.328;6.668;2023-08-07T12:04:47;101332.75;;;32.55;76.76
77776;BME280;66965;43.328;6.668;2023-08-07T12:07:17;101331.78;;;32.64;81.28
77776;BME280;66965;43.328;6.668;2023-08-07T12:09:42;101330.56;;;32.33;70.03
77776;BME280;66965;43.328;6.668;2023-08-07T12:12:08;101337.28;;;32.20;83.47
77776;BME280;66965;43.328;6.668;2023-08-07T12:14:35;101330.34;;;32.26;77.40
77776;BME280;66965;43.328;6.668;2023-08-07T12:17:04;101329.50;;;32.25;77.54
77776;BME280;66965;43.328;6.668;2023-08-07T12:19:39;101337.13;;;32.81;85.57
77776;BME280;66965;43.328;6.668;2023-08-07T12:22:06;101340.03;;;32.88;82.77
77776;BME280;66965;43.328;6.668;2023-08-07T12:24:35;101338.63;;;33.18;71.90
77776;BME280;66965;43.328;6.668;2023-08-07T12:27:00;101336.69;;;33.76;62.65
77776;BME280;66965;43.328;6.668;2023-08-07T12:29:25;101345.31;;;33.56;67.20
77776;BME280;66965;43.328;6.668;2023-08-07T12:31:54;101337.31;;;33.30;68.16
77776;BME280;66965;43.328;6.668;2023-08-07T12:34:20;101342.00;;;32.70;65.40
77776;BME280;66965;43.328;6.668;2023-08-07T12:36:45;101341.66;;;32.47;65.19
77776;BME280;66965;43.328;6.668;2023-08-07T12:39:12;101333.50;;;32.65;54.28
77776;BME280;66965;43.328;6.668;2023-08-07T12:41:37;101343.50;;;32.64;54.86
77776;BME280;66965;43.328;6.668;2023-08-07T12:44:03;101333.00;;;32.69;58.07
77776;BME280;66965;43.328;6.668;2023-08-07T12:46:28;101334.53;;;33.06;57.85
77776;BME280;66965;43.328;6.668;2023-08-07T12:48:53;101333.38;;;32.82;57.09
77776;BME280;66965;43.328;6.668;2023-08-07T12:51:19;101330.25;;;33.03;56.53
77776;BME280;66965;43.328;6.668;2023-08-07T12:53:44;101333.78;;;32.54;60.64
77776;BME280;66965;43.328;6.668;2023-08-07T12:56:10;101325.38;;;32.73;65.36